Time;durP1;ratioP1;P1;durP2;ratioP2;P2;SDS_P1;SDS_P2;PMS_P1;PMS_P2;Temp;Humidity;BMP_temperature;BMP_pressure;BME280_temperature;BME280_humidity;BME280_pressure;Samples;Min_cycle;Max_cycle;Signal;HPM_P1;HPM_P2
2021/03/02 00:00:29;;;;;;;32.07;23.10;;;1.90;99.90;;;;;;5101763;28;21057;-79
2021/03/02 00:02:56;;;;;;;30.43;22.00;;;1.80;99.90;;;;;;5084331;28;20469;-80
2021/03/02 00:05:22;;;;;;;28.37;21.20;;;1.80;99.90;;;;;;5083686;28;21067;-78
2021/03/02 00:07:48;;;;;;;27.13;20.90;;;1.80;99.90;;;;;;5084936;28;20436;-79
2021/03/02 00:10:15;;;;;;;26.73;21.07;;;1.70;99.90;;;;;;5087613;28;20518;-79
2021/03/02 00:12:42;;;;;;;23.83;19.27;;;1.70;99.90;;;;;;5083507;28;20455;-79
2021/03/02 00:15:11;;;;;;;29.33;21.03;;;1.70;99.90;;;;;;5078433;28;20510;-78
2021/03/02 00:17:45;;;;;;;25.00;19.03;;;1.70;99.90;;;;;;5083020;28;20861;-76
2021/03/02 00:20:14;;;;;;;24.20;19.47;;;1.70;99.90;;;;;;5084695;28;20851;-79
2021/03/02 00:22:49;;;;;;;29.97;19.80;;;1.60;99.90;;;;;;5077065;28;20474;-78
2021/03/02 00:25:16;;;;;;;25.83;19.00;;;1.60;99.90;;;;;;5084412;28;21103;-78
2021/03/02 00:27:45;;;;;;;24.87;19.43;;;1.60;99.90;;;;;;5079416;28;20457;-78
2021/03/02 00:30:15;;;;;;;27.17;20.93;;;1.60;99.90;;;;;;5088505;28;20475;-78
2021/03/02 00:32:46;;;;;;;25.37;20.00;;;1.50;99.90;;;;;;5077336;28;20455;-78
2021/03/02 00:35:13;;;;;;;27.37;20.43;;;1.50;99.90;;;;;;5084858;28;21062;-78
2021/03/02 00:37:39;;;;;;;27.73;21.07;;;1.50;99.90;;;;;;5085630;28;20461;-76
2021/03/02 00:40:07;;;;;;;31.63;22.90;;;1.40;99.90;;;;;;5082450;28;20518;-78
2021/03/02 00:42:34;;;;;;;30.23;23.03;;;1.40;99.90;;;;;;5079230;28;20463;-78
2021/03/02 00:45:01;;;;;;;28.23;21.37;;;1.40;99.90;;;;;;5088640;28;20489;-78
2021/03/02 00:47:27;;;;;;;29.70;21.87;;;1.40;99.90;;;;;;5076630;28;20838;-78
2021/03/02 00:49:53;;;;;;;25.27;19.20;;;1.40;99.90;;;;;;5079479;28;20465;-78
2021/03/02 00:52:20;;;;;;;27.70;20.03;;;1.40;99.90;;;;;;5081839;28;20447;-79
2021/03/02 00:54:46;;;;;;;26.70;19.77;;;1.30;99.90;;;;;;5081354;28;20440;-78
2021/03/02 00:57:13;;;;;;;27.80;20.67;;;1.30;99.90;;;;;;5082556;28;20965;-78
2021/03/02 00:59:41;;;;;;;28.47;20.73;;;1.30;99.90;;;;;;5083772;28;20518;-77
2021/03/02 01:02:09;;;;;;;27.77;19.60;;;1.30;99.90;;;;;;5085057;28;20472;-78
2021/03/02 01:04:36;;;;;;;26.20;17.87;;;1.30;99.90;;;;;;5080123;28;20476;-78
2021/03/02 01:07:03;;;;;;;23.83;18.20;;;1.30;99.90;;;;;;5077606;28;20465;-78
2021/03/02 01:09:31;;;;;;;22.37;17.77;;;1.40;99.90;;;;;;5072554;28;20458;-78
2021/03/02 01:11:59;;;;;;;23.03;17.90;;;1.40;99.90;;;;;;5081812;28;20834;-78
2021/03/02 01:14:25;;;;;;;24.83;18.07;;;1.40;99.90;;;;;;5076788;28;20521;-76
2021/03/02 01:16:52;;;;;;;19.77;16.60;;;1.30;99.90;;;;;;5084695;28;20870;-78
2021/03/02 01:19:19;;;;;;;24.17;17.27;;;1.20;99.90;;;;;;5077700;28;20436;-77
2021/03/02 01:21:45;;;;;;;19.90;16.07;;;1.30;99.90;;;;;;5086149;28;20813;-79
2021/03/02 01:24:12;;;;;;;24.80;19.37;;;1.20;99.90;;;;;;5079792;28;20476;-78
2021/03/02 01:26:38;;;;;;;21.10;17.87;;;1.20;99.90;;;;;;5084622;28;20490;-78
2021/03/02 01:29:05;;;;;;;20.97;17.20;;;1.20;99.90;;;;;;5090716;28;20462;-77
2021/03/02 01:31:31;;;;;;;24.43;18.33;;;1.20;99.90;;;;;;5080991;28;20452;-77
2021/03/02 01:33:57;;;;;;;20.37;17.43;;;1.20;99.90;;;;;;5082635;28;20864;-78
2021/03/02 01:36:25;;;;;;;22.13;17.80;;;1.20;99.90;;;;;;5077883;28;20434;-78
2021/03/02 01:38:51;;;;;;;19.17;16.50;;;1.20;99.90;;;;;;5079070;28;20456;-78
2021/03/02 01:41:18;;;;;;;22.97;16.97;;;1.30;99.90;;;;;;5082885;28;20454;-79
2021/03/02 01:43:45;;;;;;;19.63;17.37;;;1.30;99.90;;;;;;5082464;28;20496;-78
2021/03/02 01:46:12;;;;;;;20.97;17.07;;;1.30;99.90;;;;;;5081529;28;20494;-78
2021/03/02 01:48:40;;;;;;;20.10;15.87;;;1.30;99.90;;;;;;5084342;28;20437;-78
2021/03/02 01:51:09;;;;;;;17.40;15.13;;;1.40;99.90;;;;;;5085414;28;20459;-78
2021/03/02 01:53:36;;;;;;;18.87;16.10;;;1.40;99.90;;;;;;5079793;28;20477;-78
2021/03/02 01:56:03;;;;;;;17.70;15.30;;;1.50;99.90;;;;;;5079316;28;20434;-78
2021/03/02 01:58:30;;;;;;;17.90;14.83;;;1.60;99.90;;;;;;5073887;28;20437;-78
2021/03/02 02:00:58;;;;;;;18.03;15.70;;;1.60;99.90;;;;;;5081908;28;20822;-78
2021/03/02 02:03:32;;;;;;;16.73;14.90;;;1.60;99.90;;;;;;5085144;28;20526;-79
2021/03/02 02:06:02;;;;;;;17.13;14.87;;;1.50;99.90;;;;;;5085190;28;20485;-78
2021/03/02 02:08:41;;;;;;;17.13;14.27;;;1.60;99.90;;;;;;5067023;28;20978;-78
2021/03/02 02:11:15;;;;;;;16.00;14.30;;;1.50;99.90;;;;;;5083442;28;20468;-78
2021/03/02 02:13:46;;;;;;;18.57;15.87;;;1.40;99.90;;;;;;5078663;28;20519;-78
2021/03/02 02:16:15;;;;;;;18.40;14.57;;;1.40;99.90;;;;;;5081667;28;20825;-78
2021/03/02 02:18:44;;;;;;;16.70;14.90;;;1.40;99.90;;;;;;5081888;28;20450;-78
2021/03/02 02:21:22;;;;;;;17.83;14.63;;;1.40;99.90;;;;;;5081427;28;20470;-78
2021/03/02 02:24:02;;;;;;;16.87;14.40;;;1.30;99.90;;;;;;5073619;28;20472;-78
2021/03/02 02:26:43;;;;;;;16.73;14.57;;;1.20;99.90;;;;;;5067568;28;20541;-78
2021/03/02 02:29:13;;;;;;;17.13;13.93;;;1.10;99.90;;;;;;5074888;28;20444;-78
2021/03/02 02:31:41;;;;;;;16.57;14.40;;;1.10;99.90;;;;;;5073287;28;20486;-78
2021/03/02 02:34:10;;;;;;;18.03;14.70;;;1.00;99.90;;;;;;5073701;28;20491;-78
2021/03/02 02:36:36;;;;;;;17.73;15.83;;;1.00;99.90;;;;;;5072111;28;20470;-79
2021/03/02 02:39:03;;;;;;;16.17;14.43;;;0.90;99.90;;;;;;5073379;28;20925;-78
2021/03/02 02:41:30;;;;;;;20.63;15.10;;;0.90;99.90;;;;;;5077883;28;20440;-78
2021/03/02 02:43:58;;;;;;;16.83;14.13;;;0.80;99.90;;;;;;5082689;28;20541;-78
2021/03/02 02:46:26;;;;;;;17.87;14.90;;;0.70;99.90;;;;;;5082864;28;20999;-78
2021/03/02 02:48:53;;;;;;;20.13;15.57;;;0.70;99.90;;;;;;5080548;28;20449;-78
2021/03/02 02:51:20;;;;;;;18.43;15.80;;;0.70;99.90;;;;;;5083779;28;20502;-78
2021/03/02 02:53:47;;;;;;;17.07;15.27;;;0.70;99.90;;;;;;5081151;28;20441;-78
2021/03/02 02:56:16;;;;;;;17.67;14.97;;;0.80;99.90;;;;;;5089066;28;20466;-79
2021/03/02 02:58:50;;;;;;;16.93;15.13;;;0.80;99.90;;;;;;5091045;28;20478;-78
2021/03/02 03:01:20;;;;;;;15.87;14.20;;;0.90;99.90;;;;;;5082310;28;20819;-78
2021/03/02 03:03:48;;;;;;;16.17;14.10;;;1.00;99.90;;;;;;5074104;28;20476;-79
2021/03/02 03:06:19;;;;;;;18.93;14.63;;;1.00;99.90;;;;;;5082018;28;20424;-79
2021/03/02 03:08:50;;;;;;;20.80;15.57;;;1.10;99.90;;;;;;5079328;28;20421;-79
2021/03/02 03:11:20;;;;;;;17.13;14.87;;;1.10;99.90;;;;;;5084877;28;20456;-79
2021/03/02 03:13:48;;;;;;;17.43;15.63;;;1.10;99.90;;;;;;5088128;28;20448;-78
2021/03/02 03:16:19;;;;;;;19.23;16.63;;;1.00;99.90;;;;;;5080468;28;20433;-78
2021/03/02 03:18:49;;;;;;;20.07;16.13;;;1.10;99.90;;;;;;5081347;28;20485;-79
2021/03/02 03:21:16;;;;;;;22.10;16.30;;;1.00;99.90;;;;;;5078770;28;20457;-79
2021/03/02 03:23:44;;;;;;;18.57;16.43;;;0.90;99.90;;;;;;5081021;28;20472;-79
2021/03/02 03:26:13;;;;;;;20.23;16.20;;;0.80;99.90;;;;;;5081882;28;20874;-79
2021/03/02 03:28:41;;;;;;;19.90;15.77;;;0.80;99.90;;;;;;5076976;28;20448;-79
2021/03/02 03:31:11;;;;;;;17.30;15.37;;;0.80;99.90;;;;;;5072104;28;20972;-78
2021/03/02 03:33:40;;;;;;;19.87;15.27;;;0.70;99.90;;;;;;5084159;28;20437;-78
2021/03/02 03:36:07;;;;;;;20.13;15.43;;;0.70;99.90;;;;;;5085809;28;20503;-77
2021/03/02 03:38:34;;;;;;;16.93;15.10;;;0.70;99.90;;;;;;5084626;28;20444;-78
2021/03/02 03:41:00;;;;;;;20.13;15.57;;;0.60;99.90;;;;;;5074902;28;20460;-78
2021/03/02 03:43:27;;;;;;;19.40;15.93;;;0.60;99.90;;;;;;5073721;28;20484;-78
2021/03/02 03:45:53;;;;;;;18.33;15.20;;;0.60;99.90;;;;;;5073447;28;20457;-78
2021/03/02 03:48:19;;;;;;;19.80;15.97;;;0.50;99.90;;;;;;5081091;28;20444;-79
2021/03/02 03:50:47;;;;;;;17.47;15.37;;;0.50;99.90;;;;;;5089753;28;20471;-79
2021/03/02 03:53:16;;;;;;;18.00;14.87;;;0.50;99.90;;;;;;5088003;28;20551;-80
2021/03/02 03:55:45;;;;;;;19.97;15.17;;;0.50;99.90;;;;;;5081319;28;20947;-77
2021/03/02 03:58:16;;;;;;;18.33;15.57;;;0.50;99.90;;;;;;5080681;28;20428;-77
2021/03/02 04:00:43;;;;;;;17.53;15.63;;;0.50;99.90;;;;;;5076372;28;20892;-78
2021/03/02 04:03:09;;;;;;;17.73;15.27;;;0.60;99.90;;;;;;5079250;28;20476;-79
2021/03/02 04:05:37;;;;;;;19.37;14.60;;;0.60;99.90;;;;;;5077711;28;20437;-77
2021/03/02 04:08:05;;;;;;;17.80;15.97;;;0.60;99.90;;;;;;5073418;28;20448;-78
2021/03/02 04:10:32;;;;;;;18.33;15.90;;;0.60;99.90;;;;;;5070694;28;20450;-77
2021/03/02 04:12:58;;;;;;;19.67;15.30;;;0.60;99.90;;;;;;5079785;28;20777;-77
2021/03/02 04:15:26;;;;;;;17.93;16.07;;;0.60;99.90;;;;;;5085893;28;20424;-80
2021/03/02 04:17:54;;;;;;;18.70;14.97;;;0.50;99.90;;;;;;5075042;28;20450;-76
2021/03/02 04:20:20;;;;;;;18.83;15.77;;;0.40;99.90;;;;;;5097855;22;20553;-77
2021/03/02 04:22:47;;;;;;;19.27;15.57;;;0.50;99.90;;;;;;5068723;28;21019;-76
2021/03/02 04:25:15;;;;;;;17.73;15.40;;;0.40;99.90;;;;;;5066519;28;20455;-78
2021/03/02 04:27:42;;;;;;;22.37;16.03;;;0.40;99.90;;;;;;5084173;28;20435;-78
2021/03/02 04:30:10;;;;;;;18.43;15.33;;;0.30;99.90;;;;;;5058734;28;20462;-78
2021/03/02 04:32:36;;;;;;;18.87;16.20;;;0.30;99.90;;;;;;5047144;28;20449;-78
2021/03/02 04:35:03;;;;;;;17.90;15.27;;;0.30;99.90;;;;;;5046155;28;20504;-78
2021/03/02 04:37:29;;;;;;;16.93;15.13;;;0.20;99.90;;;;;;5048582;28;20454;-79
2021/03/02 04:39:56;;;;;;;18.60;15.57;;;0.20;99.90;;;;;;5064639;28;20459;-81
2021/03/02 04:42:23;;;;;;;16.50;14.77;;;0.10;99.90;;;;;;5060324;28;20441;-82
2021/03/02 04:44:49;;;;;;;17.63;15.60;;;0.00;99.90;;;;;;5044817;28;20443;-81
2021/03/02 04:47:15;;;;;;;17.97;15.93;;;0.00;99.90;;;;;;5066305;28;21008;-80
2021/03/02 04:49:42;;;;;;;18.37;15.77;;;-0.10;99.90;;;;;;5044740;28;20454;-82
2021/03/02 04:52:08;;;;;;;21.27;16.73;;;-0.10;99.90;;;;;;5064765;28;20434;-81
2021/03/02 04:54:34;;;;;;;18.30;15.83;;;-0.10;99.90;;;;;;5047469;28;20453;-81
2021/03/02 04:57:01;;;;;;;16.83;15.03;;;-0.10;99.90;;;;;;5047609;28;20506;-82
2021/03/02 04:59:28;;;;;;;19.60;15.20;;;-0.10;99.90;;;;;;5042274;28;20445;-80
2021/03/02 05:01:54;;;;;;;18.17;16.30;;;-0.20;99.90;;;;;;5042273;28;20454;-82
2021/03/02 05:04:20;;;;;;;16.40;13.53;;;-0.10;99.90;;;;;;5046940;28;20480;-81
2021/03/02 05:06:47;;;;;;;16.67;13.47;;;-0.20;99.90;;;;;;5046177;28;21044;-81
2021/03/02 05:09:13;;;;;;;15.47;13.20;;;-0.20;99.90;;;;;;5047476;28;20451;-80
2021/03/02 05:11:39;;;;;;;19.50;14.90;;;-0.30;99.90;;;;;;5064507;28;20484;-82
2021/03/02 05:14:06;;;;;;;20.17;15.83;;;-0.20;99.90;;;;;;5038678;28;20447;-81
2021/03/02 05:16:33;;;;;;;17.27;14.63;;;-0.30;99.90;;;;;;5049789;28;20468;-81
2021/03/02 05:19:02;;;;;;;17.43;14.73;;;-0.30;99.90;;;;;;5042496;28;20457;-83
2021/03/02 05:21:28;;;;;;;17.47;14.53;;;-0.30;99.90;;;;;;5064505;28;20461;-80
2021/03/02 05:23:55;;;;;;;20.30;15.27;;;-0.30;99.90;;;;;;5046686;28;20894;-80
2021/03/02 05:26:21;;;;;;;19.30;15.10;;;-0.30;99.90;;;;;;5047152;28;20493;-80
2021/03/02 05:28:48;;;;;;;18.80;14.87;;;-0.20;99.90;;;;;;5046913;28;20457;-82
2021/03/02 05:31:14;;;;;;;16.73;13.83;;;-0.30;99.90;;;;;;5050015;28;20551;-82
2021/03/02 05:33:42;;;;;;;16.47;12.90;;;-0.30;99.90;;;;;;5064687;28;20437;-81
2021/03/02 05:36:08;;;;;;;17.90;13.17;;;-0.30;99.90;;;;;;5042331;28;20449;-81
2021/03/02 05:38:35;;;;;;;16.20;13.87;;;-0.30;99.90;;;;;;5063852;28;20480;-80
2021/03/02 05:41:02;;;;;;;17.47;14.37;;;-0.30;99.90;;;;;;5062454;28;20592;-80
2021/03/02 05:43:29;;;;;;;18.67;14.07;;;-0.40;99.90;;;;;;5061373;28;20472;-79
2021/03/02 05:45:55;;;;;;;18.33;15.07;;;-0.40;99.90;;;;;;5047591;28;20957;-78
2021/03/02 05:48:23;;;;;;;16.87;13.73;;;-0.30;99.90;;;;;;5043620;28;20460;-77
2021/03/02 05:50:53;;;;;;;15.40;13.07;;;-0.40;99.90;;;;;;5060353;28;20526;-77
2021/03/02 05:53:19;;;;;;;17.03;13.80;;;-0.40;99.90;;;;;;5034078;28;20453;-77
2021/03/02 05:55:46;;;;;;;20.00;15.13;;;-0.40;99.90;;;;;;5034295;28;20461;-77
2021/03/02 05:58:14;;;;;;;19.27;14.37;;;-0.50;99.90;;;;;;5052368;28;20434;-77
2021/03/02 06:00:41;;;;;;;18.73;14.97;;;-0.50;99.90;;;;;;5047304;28;21001;-76
2021/03/02 06:03:08;;;;;;;17.30;13.70;;;-0.50;99.90;;;;;;5023790;28;20470;-77
2021/03/02 06:05:34;;;;;;;19.97;14.70;;;-0.40;99.90;;;;;;5045409;28;20472;-76
2021/03/02 06:08:01;;;;;;;18.37;14.93;;;-0.40;99.90;;;;;;5056940;28;20425;-77
2021/03/02 06:10:29;;;;;;;16.27;14.20;;;-0.40;99.90;;;;;;5046087;28;20854;-76
2021/03/02 06:12:57;;;;;;;18.40;15.10;;;-0.40;99.90;;;;;;5062162;28;20810;-76
2021/03/02 06:15:24;;;;;;;16.43;14.53;;;-0.40;99.90;;;;;;5040065;28;21462;-76
2021/03/02 06:18:08;;;;;;;20.17;14.80;;;-0.30;99.90;;;;;;5058828;28;20808;-77
2021/03/02 06:20:36;;;;;;;16.33;14.10;;;-0.40;99.90;;;;;;5059946;28;20500;-77
2021/03/02 06:23:19;;;;;;;20.53;14.60;;;-0.30;99.90;;;;;;5047118;28;20473;-77
2021/03/02 06:25:46;;;;;;;19.43;15.43;;;-0.30;99.90;;;;;;5032705;28;20442;-77
2021/03/02 06:28:12;;;;;;;19.40;14.80;;;-0.20;99.90;;;;;;5060348;28;20437;-77
2021/03/02 06:30:39;;;;;;;16.37;14.73;;;-0.10;99.90;;;;;;5060440;28;20962;-77
2021/03/02 06:33:16;;;;;;;18.20;15.10;;;0.00;99.90;;;;;;5063337;28;20433;-77
2021/03/02 06:35:43;;;;;;;22.13;15.10;;;0.10;99.90;;;;;;5036227;28;20804;-77
2021/03/02 06:38:11;;;;;;;23.13;15.90;;;0.20;99.90;;;;;;5061240;28;20442;-77
2021/03/02 06:40:40;;;;;;;20.40;15.53;;;0.30;99.90;;;;;;5042255;28;20462;-77
2021/03/02 06:43:07;;;;;;;19.53;16.40;;;0.40;99.90;;;;;;5065046;28;20515;-77
2021/03/02 06:45:33;;;;;;;19.30;16.20;;;0.70;99.90;;;;;;5063632;28;20459;-77
2021/03/02 06:48:05;;;;;;;18.53;14.97;;;0.90;99.90;;;;;;5049453;28;20456;-78
2021/03/02 06:50:39;;;;;;;20.33;14.77;;;1.20;99.90;;;;;;5035457;28;20486;-79
2021/03/02 06:53:09;;;;;;;18.80;14.80;;;1.60;99.90;;;;;;5059179;28;20436;-76
2021/03/02 06:55:37;;;;;;;18.23;14.43;;;1.90;99.90;;;;;;5044049;28;20884;-75
2021/03/02 06:58:30;;;;;;;18.60;14.80;;;2.20;99.90;;;;;;5055115;28;20467;-75
2021/03/02 07:00:57;;;;;;;19.07;14.00;;;2.50;99.90;;;;;;5027572;28;20473;-77
2021/03/02 07:03:29;;;;;;;16.80;13.67;;;2.80;99.90;;;;;;5054815;28;20852;-77
2021/03/02 07:05:57;;;;;;;20.70;15.23;;;3.00;99.90;;;;;;5061532;28;20918;-78
2021/03/02 07:08:24;;;;;;;17.67;15.10;;;3.20;99.90;;;;;;5046958;28;20466;-77
2021/03/02 07:10:53;;;;;;;17.80;14.00;;;3.40;99.90;;;;;;5063923;28;20454;-78
2021/03/02 07:13:21;;;;;;;19.93;14.07;;;3.60;99.90;;;;;;5048291;28;20983;-78
2021/03/02 07:15:50;;;;;;;16.40;14.53;;;3.80;99.90;;;;;;5048040;28;20441;-77
2021/03/02 07:18:19;;;;;;;17.17;10.60;;;4.00;99.90;;;;;;5068118;28;20424;-77
2021/03/02 07:20:48;;;;;;;16.67;10.87;;;4.20;99.90;;;;;;5063685;28;20841;-77
2021/03/02 07:23:17;;;;;;;15.77;13.97;;;4.50;99.90;;;;;;5063756;28;20905;-78
2021/03/02 07:25:45;;;;;;;18.63;14.27;;;4.70;99.90;;;;;;5037714;28;20514;-77
2021/03/02 07:28:13;;;;;;;22.33;11.07;;;4.90;99.90;;;;;;5038745;28;20214;-77
2021/03/02 07:30:40;;;;;;;17.60;14.13;;;5.10;99.90;;;;;;5044282;28;20207;-78
2021/03/02 07:33:07;;;;;;;13.80;10.07;;;5.30;99.90;;;;;;5042063;28;20569;-78
2021/03/02 07:35:34;;;;;;;17.13;11.33;;;5.30;99.90;;;;;;5071103;28;20203;-78
2021/03/02 07:38:15;;;;;;;18.23;14.63;;;5.20;99.90;;;;;;5063514;28;20269;-77
2021/03/02 07:40:43;;;;;;;17.60;14.33;;;5.10;99.90;;;;;;5062590;28;20223;-77
2021/03/02 07:43:24;;;;;;;16.87;13.97;;;5.00;99.90;;;;;;5047913;28;20219;-77
2021/03/02 07:45:50;;;;;;;16.03;12.60;;;5.20;99.90;;;;;;5043658;28;20190;-77
2021/03/02 07:48:29;;;;;;;17.73;15.23;;;5.60;99.90;;;;;;5040656;28;20675;-74
2021/03/02 07:51:19;;;;;;;18.27;16.43;;;5.90;99.90;;;;;;5071477;28;20583;-75
2021/03/02 07:53:47;;;;;;;18.27;16.23;;;6.30;99.90;;;;;;5035307;28;20270;-75
2021/03/02 07:56:22;;;;;;;18.10;15.87;;;6.60;99.90;;;;;;5066555;28;20205;-75
2021/03/02 07:59:18;;;;;;;18.97;15.60;;;7.10;99.90;;;;;;5063338;28;20188;-75
2021/03/02 08:01:45;;;;;;;18.77;16.77;;;7.40;99.90;;;;;;5059273;28;20216;-74
2021/03/02 08:04:26;;;;;;;17.17;15.53;;;7.80;99.90;;;;;;5065102;28;20654;-76
2021/03/02 08:06:54;;;;;;;18.00;16.20;;;8.00;99.90;;;;;;5031563;28;20201;-76
2021/03/02 08:09:28;;;;;;;16.07;14.57;;;8.40;99.90;;;;;;5067372;28;20254;-77
2021/03/02 08:11:56;;;;;;;17.43;15.20;;;8.60;99.90;;;;;;5042327;28;20701;-76
2021/03/02 08:14:32;;;;;;;19.53;15.53;;;8.70;99.90;;;;;;5067310;28;20201;-76
2021/03/02 08:16:59;;;;;;;17.87;15.97;;;8.80;99.90;;;;;;5039829;28;20198;-76
2021/03/02 08:19:34;;;;;;;17.80;16.00;;;8.90;99.90;;;;;;5061303;28;20198;-76
2021/03/02 08:22:00;;;;;;;16.27;14.67;;;9.20;99.90;;;;;;5062685;28;20202;-76
2021/03/02 08:24:49;;;;;;;15.93;14.23;;;9.50;99.90;;;;;;5046807;28;20238;-76
2021/03/02 08:27:15;;;;;;;15.73;14.23;;;9.80;99.90;;;;;;5044635;28;20191;-75
2021/03/02 08:29:49;;;;;;;15.83;14.33;;;9.90;99.90;;;;;;5062546;28;20195;-75
2021/03/02 08:32:17;;;;;;;17.83;14.13;;;10.10;99.90;;;;;;5063725;28;20186;-75
2021/03/02 08:34:44;;;;;;;18.40;15.80;;;10.10;99.90;;;;;;5060303;28;20190;-75
2021/03/02 08:37:10;;;;;;;17.60;15.13;;;10.30;99.90;;;;;;5068169;28;20198;-75
2021/03/02 08:39:37;;;;;;;16.07;14.37;;;10.50;99.90;;;;;;5040677;28;20568;-75
2021/03/02 08:42:08;;;;;;;15.60;14.00;;;10.40;99.90;;;;;;5043502;28;20222;-76
2021/03/02 08:44:34;;;;;;;15.67;14.03;;;10.00;99.90;;;;;;5065174;28;20199;-76
2021/03/02 08:47:01;;;;;;;15.43;12.37;;;10.00;99.90;;;;;;5046084;28;20249;-76
2021/03/02 08:49:28;;;;;;;14.57;12.97;;;10.20;99.90;;;;;;5039767;28;20214;-76
2021/03/02 08:51:58;;;;;;;16.87;15.20;;;10.60;99.90;;;;;;5062619;28;20202;-76
2021/03/02 08:54:25;;;;;;;15.80;14.20;;;10.80;99.90;;;;;;5070842;28;20218;-76
2021/03/02 08:56:59;;;;;;;16.90;14.87;;;10.60;99.90;;;;;;5044084;28;20199;-75
2021/03/02 08:59:29;;;;;;;17.83;15.53;;;10.90;99.90;;;;;;5062868;28;20191;-75
2021/03/02 09:01:56;;;;;;;13.60;10.20;;;11.00;99.90;;;;;;5054674;28;20226;-76
2021/03/02 09:04:30;;;;;;;15.73;11.80;;;11.20;99.90;;;;;;5045549;28;20304;-76
2021/03/02 09:06:56;;;;;;;13.60;11.53;;;11.20;99.90;;;;;;5061418;28;20194;-76
2021/03/02 09:09:24;;;;;;;15.20;12.27;;;10.90;99.90;;;;;;5061624;28;20200;-76
2021/03/02 09:11:51;;;;;;;14.40;11.90;;;10.70;99.90;;;;;;5049994;28;20239;-75
2021/03/02 09:14:20;;;;;;;12.80;11.10;;;11.00;99.90;;;;;;5045018;28;20195;-76
2021/03/02 09:16:48;;;;;;;16.07;12.20;;;11.30;99.90;;;;;;5059060;28;20202;-76
2021/03/02 09:19:24;;;;;;;14.00;12.50;;;11.60;99.90;;;;;;5063565;28;20221;-76
2021/03/02 09:21:53;;;;;;;13.73;12.10;;;11.80;99.90;;;;;;5043337;28;20237;-76
2021/03/02 09:24:21;;;;;;;17.30;13.03;;;12.10;99.90;;;;;;5064869;28;20207;-75
2021/03/02 09:26:57;;;;;;;14.87;12.33;;;12.00;99.90;;;;;;5043880;28;20737;-75
2021/03/02 09:29:26;;;;;;;15.53;13.43;;;11.70;99.90;;;;;;5058210;28;20204;-76
2021/03/02 09:31:55;;;;;;;14.40;11.87;;;11.70;99.90;;;;;;5042224;28;20704;-76
2021/03/02 09:34:33;;;;;;;15.93;12.43;;;11.80;99.90;;;;;;5062830;28;20552;-76
2021/03/02 09:37:04;;;;;;;15.10;12.60;;;11.90;99.90;;;;;;5061113;28;20200;-76
2021/03/02 09:39:31;;;;;;;17.67;15.90;;;11.90;99.90;;;;;;5061616;28;20280;-76
2021/03/02 09:41:57;;;;;;;17.87;13.20;;;12.00;99.90;;;;;;5060809;28;20192;-75
2021/03/02 09:44:27;;;;;;;12.90;11.50;;;11.90;99.90;;;;;;5043537;28;20746;-76
2021/03/02 09:46:56;;;;;;;16.87;15.17;;;12.00;99.90;;;;;;5063700;28;20192;-75
2021/03/02 09:49:41;;;;;;;14.67;12.70;;;11.60;99.90;;;;;;5056791;28;20625;-76
2021/03/02 09:52:23;;;;;;;18.10;13.13;;;11.70;99.90;;;;;;5043424;28;20291;-77
2021/03/02 09:55:07;;;;;;;17.13;13.00;;;11.60;99.90;;;;;;5060004;28;20242;-76
2021/03/02 09:57:34;;;;;;;13.87;11.90;;;11.70;99.90;;;;;;5054294;28;20196;-76
2021/03/02 10:00:08;;;;;;;13.13;11.43;;;11.80;99.90;;;;;;5060740;28;20208;-77
2021/03/02 10:02:47;;;;;;;15.00;13.03;;;12.10;99.90;;;;;;5060844;28;20197;-77
2021/03/02 10:05:14;;;;;;;15.57;13.53;;;11.90;99.90;;;;;;5060415;28;20194;-77
2021/03/02 10:07:43;;;;;;;15.00;12.90;;;11.80;99.90;;;;;;5039898;28;20187;-76
2021/03/02 10:10:10;;;;;;;15.20;12.80;;;11.70;99.90;;;;;;5063237;28;20223;-76
2021/03/02 10:12:37;;;;;;;15.40;12.97;;;11.50;99.90;;;;;;5043305;28;20203;-76
2021/03/02 10:15:04;;;;;;;15.03;13.37;;;11.60;99.90;;;;;;5041153;28;20267;-77
2021/03/02 10:17:36;;;;;;;16.33;13.73;;;11.70;99.90;;;;;;5052914;28;20195;-77
2021/03/02 10:20:07;;;;;;;15.03;12.27;;;11.70;99.90;;;;;;5070536;22;20234;-78
2021/03/02 10:22:34;;;;;;;13.47;12.07;;;11.70;99.90;;;;;;5073845;28;20485;-77
2021/03/02 10:25:03;;;;;;;13.63;11.80;;;11.60;99.90;;;;;;5101195;28;20212;-78
2021/03/02 10:27:29;;;;;;;12.30;11.10;;;11.60;99.90;;;;;;5088486;28;20508;-77
2021/03/02 10:29:55;;;;;;;15.27;12.50;;;11.70;99.90;;;;;;5097205;28;20200;-77
2021/03/02 10:32:22;;;;;;;14.47;12.60;;;11.70;99.90;;;;;;5084583;28;20213;-77
2021/03/02 10:34:48;;;;;;;14.73;12.00;;;11.60;99.90;;;;;;5082807;28;20190;-77
2021/03/02 10:37:14;;;;;;;13.50;11.93;;;11.70;99.90;;;;;;5083680;28;20410;-77
2021/03/02 10:39:41;;;;;;;12.97;11.37;;;11.70;99.90;;;;;;5101902;28;20198;-78
2021/03/02 10:42:09;;;;;;;13.50;12.10;;;11.60;99.90;;;;;;5085002;28;20205;-77
2021/03/02 10:44:35;;;;;;;16.67;12.43;;;11.60;99.90;;;;;;5095500;28;20213;-77
2021/03/02 10:47:02;;;;;;;14.57;11.70;;;11.60;99.90;;;;;;5100619;28;20205;-77
2021/03/02 10:49:28;;;;;;;14.70;11.70;;;11.60;99.90;;;;;;5107281;28;20577;-77
2021/03/02 10:51:54;;;;;;;16.80;11.73;;;11.40;99.90;;;;;;5082005;28;20226;-77
2021/03/02 10:54:21;;;;;;;15.93;14.23;;;11.50;99.90;;;;;;5110731;28;20670;-77
2021/03/02 10:56:48;;;;;;;17.87;16.17;;;11.50;99.90;;;;;;5082875;28;20224;-77
2021/03/02 10:59:14;;;;;;;16.93;15.27;;;11.40;99.90;;;;;;5104155;28;20193;-78
2021/03/02 11:01:40;;;;;;;15.87;11.53;;;11.40;99.90;;;;;;5100038;28;20213;-77
2021/03/02 11:04:07;;;;;;;16.90;11.17;;;11.50;99.90;;;;;;5097218;28;20243;-77
2021/03/02 11:06:33;;;;;;;15.20;13.30;;;11.40;99.90;;;;;;5081965;28;20590;-78
2021/03/02 11:09:00;;;;;;;13.50;11.47;;;11.40;99.90;;;;;;5081820;28;20223;-77
2021/03/02 11:11:27;;;;;;;16.47;11.30;;;11.50;99.90;;;;;;5082663;28;20223;-77
2021/03/02 11:13:54;;;;;;;16.83;10.23;;;11.50;99.90;;;;;;5081234;28;20193;-77
2021/03/02 11:16:22;;;;;;;14.97;10.60;;;11.60;99.90;;;;;;5095230;28;20186;-77
2021/03/02 11:18:48;;;;;;;15.37;10.67;;;11.60;99.90;;;;;;5103437;28;20185;-78
2021/03/02 11:21:15;;;;;;;16.23;10.53;;;11.60;99.90;;;;;;5098796;28;20271;-77
2021/03/02 11:23:42;;;;;;;20.37;13.67;;;11.70;99.90;;;;;;5101315;28;20213;-77
2021/03/02 11:26:08;;;;;;;14.67;11.00;;;11.70;99.90;;;;;;5082375;28;20194;-78
2021/03/02 11:28:35;;;;;;;14.30;11.67;;;11.80;99.90;;;;;;5086109;28;20709;-79
2021/03/02 11:31:02;;;;;;;15.20;11.60;;;11.80;99.90;;;;;;5105996;28;20586;-77
2021/03/02 11:33:28;;;;;;;18.97;17.23;;;11.90;99.90;;;;;;5088258;28;20655;-77
2021/03/02 11:35:55;;;;;;;17.27;15.47;;;11.90;99.90;;;;;;5096401;28;20193;-77
2021/03/02 11:38:21;;;;;;;13.20;10.20;;;12.00;99.90;;;;;;5082037;28;20202;-78
2021/03/02 11:40:48;;;;;;;16.87;11.60;;;12.00;99.90;;;;;;5099934;28;20210;-77
2021/03/02 11:43:14;;;;;;;14.43;10.60;;;12.00;99.90;;;;;;5099735;28;20209;-77
2021/03/02 11:45:41;;;;;;;17.10;11.07;;;12.00;99.90;;;;;;5099355;28;20198;-77
2021/03/02 11:48:10;;;;;;;12.60;9.67;;;12.00;99.90;;;;;;5085174;28;20197;-77
2021/03/02 11:50:36;;;;;;;14.43;11.10;;;12.00;99.90;;;;;;5081170;28;20228;-77
2021/03/02 11:53:03;;;;;;;16.10;10.10;;;12.10;99.90;;;;;;5105535;28;20206;-80
2021/03/02 11:55:29;;;;;;;12.93;10.03;;;12.20;99.90;;;;;;5097159;28;20190;-77
2021/03/02 11:57:56;;;;;;;14.57;10.23;;;12.30;99.90;;;;;;5103420;28;20195;-77
2021/03/02 12:00:23;;;;;;;12.03;9.10;;;12.30;99.90;;;;;;5104444;28;20222;-77
2021/03/02 12:02:50;;;;;;;17.77;10.17;;;12.30;99.90;;;;;;5101940;28;20204;-77
2021/03/02 12:05:19;;;;;;;13.03;9.93;;;12.40;99.90;;;;;;5079654;28;20226;-77
2021/03/02 12:07:46;;;;;;;13.10;10.07;;;12.50;99.90;;;;;;5106447;28;20190;-77
2021/03/02 12:10:14;;;;;;;14.33;9.77;;;12.40;99.90;;;;;;5101891;28;20237;-77
2021/03/02 12:12:42;;;;;;;15.60;10.10;;;12.50;99.90;;;;;;5085196;28;20301;-77
2021/03/02 12:15:10;;;;;;;15.13;11.20;;;12.50;99.90;;;;;;5103303;28;20655;-77
2021/03/02 12:17:37;;;;;;;13.57;9.60;;;12.60;99.90;;;;;;5103595;28;20189;-77
2021/03/02 12:20:04;;;;;;;14.67;13.03;;;12.70;99.90;;;;;;5085161;28;20213;-77
2021/03/02 12:22:32;;;;;;;14.07;12.60;;;12.80;99.90;;;;;;5084014;28;20461;-77
2021/03/02 12:24:58;;;;;;;14.20;11.43;;;12.90;99.90;;;;;;5101335;28;20215;-76
2021/03/02 12:27:24;;;;;;;12.77;10.17;;;12.90;99.90;;;;;;5086390;28;20194;-77
2021/03/02 12:29:50;;;;;;;13.83;9.03;;;12.90;99.90;;;;;;5102658;28;20658;-77
2021/03/02 12:32:17;;;;;;;14.53;9.50;;;13.00;99.90;;;;;;5104080;28;20219;-77
2021/03/02 12:34:43;;;;;;;15.73;13.17;;;13.10;99.90;;;;;;5100843;28;20187;-77
2021/03/02 12:37:09;;;;;;;12.67;9.20;;;13.10;99.90;;;;;;5080374;28;20225;-76
2021/03/02 12:39:36;;;;;;;13.43;12.17;;;13.20;99.90;;;;;;5101586;28;20591;-77